Time;durP1;ratioP1;P1;durP2;ratioP2;P2;SDS_P1;SDS_P2;PMS_P1;PMS_P2;Temp;Humidity;BMP_temperature;BMP_pressure;BME280_temperature;BME280_humidity;BME280_pressure;Samples;Min_cycle;Max_cycle;Signal;HPM_P1;HPM_P2
2022/05/11 08:05:16;;;;;;;6.20;3.20;;;;;;;23.93;57.75;98945.50;5145169;27;20197;-79
2022/05/11 08:07:45;;;;;;;5.57;3.20;;;;;;;24.15;59.27;98942.44;5145873;27;20054;-79
2022/05/11 08:10:15;;;;;;;7.63;3.70;;;;;;;24.52;59.13;98958.75;5147748;27;20043;-79
2022/05/11 08:12:41;;;;;;;8.52;3.25;;;;;;;24.66;57.10;98955.38;5148494;27;20043;-79
2022/05/11 08:15:09;;;;;;;7.68;2.83;;;;;;;24.57;49.41;98957.88;5148327;27;20413;-79
2022/05/11 08:17:37;;;;;;;6.40;2.78;;;;;;;24.37;55.17;98928.19;5149228;27;20047;-79
2022/05/11 08:20:09;;;;;;;7.25;2.85;;;;;;;24.10;50.54;98929.34;5149055;27;20417;-79
2022/05/11 08:22:37;;;;;;;7.10;2.97;;;;;;;24.26;51.63;98955.16;5147974;27;20138;-79
2022/05/11 08:25:04;;;;;;;4.15;2.97;;;;;;;24.63;52.12;98939.25;5147250;27;20480;-79
2022/05/11 08:27:30;;;;;;;3.42;2.50;;;;;;;24.73;54.19;98919.78;5147799;27;20050;-79
2022/05/11 08:35:27;;;;;;;5.03;3.05;;;;;;;24.75;51.63;98925.91;5148775;27;20053;-79
2022/05/11 08:37:55;;;;;;;5.07;3.05;;;;;;;25.06;53.80;98921.00;5147755;27;20083;-79
2022/05/11 08:40:31;;;;;;;2.97;2.55;;;;;;;24.71;49.37;98933.97;5131817;27;20058;-78
2022/05/11 08:42:57;;;;;;;4.20;2.80;;;;;;;24.93;50.42;98943.91;5145249;27;20050;-78
2022/05/11 08:45:32;;;;;;;4.10;2.65;;;;;;;24.80;46.91;98913.91;5147164;27;20047;-78
2022/05/11 08:48:00;;;;;;;5.05;2.60;;;;;;;25.00;47.67;98936.03;5141038;27;20042;-79
2022/05/11 08:50:30;;;;;;;3.28;2.67;;;;;;;25.26;51.48;98935.91;5145385;27;20054;-79
2022/05/11 08:53:00;;;;;;;;;;;;;;;25.44;50.93;98938.06;5137384;27;20050;-78
2022/05/11 08:55:35;;;;;;;5.75;2.92;;;;;;;25.41;53.08;98908.03;5144255;27;19984;-79
2022/05/11 08:58:07;;;;;;;8.57;2.83;;;;;;;25.55;51.45;98919.34;5151488;27;20047;-78
2022/05/11 09:00:35;;;;;;;3.20;2.75;;;;;;;25.49;46.69;98934.41;5131932;27;20147;-78
2022/05/11 09:03:07;;;;;;;4.38;2.45;;;;;;;25.44;47.85;98901.88;5138395;27;20047;-79
2022/05/11 09:05:35;;;;;;;4.65;2.40;;;;;;;25.39;47.95;98915.00;5145384;27;20058;-79
2022/05/11 09:08:06;;;;;;;3.08;1.73;;;;;;;25.67;43.69;98915.34;5144328;27;20486;-78
2022/05/11 09:10:35;;;;;;;6.15;3.15;;;;;;;25.58;43.91;98907.63;5149980;27;20112;-79
2022/05/11 09:13:04;;;;;;;4.88;2.47;;;;;;;25.50;42.79;98888.75;5148295;27;20386;-79
2022/05/11 09:15:56;;;;;;;3.17;1.83;;;;;;;25.40;42.76;98902.75;5135130;27;20071;-79
2022/05/11 09:18:33;;;;;;;7.78;2.15;;;;;;;25.42;42.16;98918.03;5113602;28;20051;-79
2022/05/11 09:21:01;;;;;;;2.25;1.73;;;;;;;25.51;40.57;98895.97;5114119;28;20134;-79
2022/05/11 09:23:31;;;;;;;2.97;1.80;;;;;;;25.57;40.13;98902.34;5112953;28;20051;-78
2022/05/11 09:26:02;;;;;;;3.75;1.80;;;;;;;25.42;41.54;98887.41;5123055;27;20039;-79
2022/05/11 09:28:31;;;;;;;4.93;1.80;;;;;;;25.46;43.39;98890.47;5134107;27;20051;-79
2022/05/11 09:31:01;;;;;;;1.88;1.50;;;;;;;25.35;41.26;98889.72;5123353;27;20047;-79
2022/05/11 09:33:30;;;;;;;2.50;1.73;;;;;;;25.16;41.50;98883.97;5113283;28;20099;-79
2022/05/11 09:35:57;;;;;;;3.92;1.83;;;;;;;25.35;40.92;98900.00;5114107;28;20394;-79
2022/05/11 09:38:34;;;;;;;13.93;2.25;;;;;;;25.64;41.69;98905.63;5113480;28;20056;-79
2022/05/11 09:41:02;;;;;;;8.75;2.33;;;;;;;25.42;39.72;98883.81;5114992;27;20051;-79
2022/05/11 09:43:33;;;;;;;6.80;2.05;;;;;;;25.57;41.01;98883.69;5133211;27;20047;-79
2022/05/11 09:46:00;;;;;;;3.05;2.17;;;;;;;25.94;40.47;98895.31;5133239;27;20489;-79
2022/05/11 09:48:30;;;;;;;3.03;2.15;;;;;;;25.73;38.57;98883.53;5134037;27;20515;-79
2022/05/11 09:51:17;;;;;;;4.18;1.85;;;;;;;25.86;39.00;98884.84;5134421;27;20100;-79
2022/05/11 09:53:52;;;;;;;6.50;2.33;;;;;;;25.76;40.30;98874.63;5133484;27;20051;-79
2022/05/11 09:56:23;;;;;;;2.78;2.30;;;;;;;25.96;40.28;98870.81;5133946;27;20051;-79
2022/05/11 09:58:49;;;;;;;2.10;1.90;;;;;;;26.24;38.89;98865.53;5130024;27;20043;-79
2022/05/11 10:01:23;;;;;;;4.43;2.30;;;;;;;26.16;40.25;98880.94;5133896;27;20057;-79
2022/05/11 10:03:53;;;;;;;6.97;2.20;;;;;;;26.25;41.20;98873.59;5133063;27;20047;-79
2022/05/11 10:06:21;;;;;;;;;;;;;;;26.50;39.48;98886.41;5133874;27;20134;-79
2022/05/11 10:08:51;;;;;;;2.75;2.30;;;;;;;26.31;39.63;98852.06;5134137;27;19919;-80
2022/05/11 10:11:23;;;;;;;7.10;2.30;;;;;;;26.29;39.55;98862.69;5133641;27;20078;-79
2022/05/11 10:13:56;;;;;;;3.92;2.40;;;;;;;25.83;40.53;98855.63;5129639;27;20096;-78
2022/05/11 10:22:15;;;;;;;14.02;2.78;;;;;;;26.43;40.07;98844.13;5132757;27;20124;-79
2022/05/11 10:25:04;;;;;;;4.20;2.45;;;;;;;26.40;40.70;98838.31;5133398;27;20473;-79
2022/05/11 10:27:40;;;;;;;4.80;2.60;;;;;;;26.66;39.00;98855.53;5134403;27;20043;-79
2022/05/11 10:30:11;;;;;;;6.30;2.47;;;;;;;26.81;43.41;98829.44;5133204;27;20400;-79
2022/05/11 10:32:55;;;;;;;3.30;2.60;;;;;;;26.99;42.71;98855.69;5132778;27;20045;-79
2022/05/11 10:35:25;;;;;;;5.43;3.00;;;;;;;26.59;40.58;98816.91;5133557;27;20050;-79
2022/05/11 10:38:10;;;;;;;6.28;2.78;;;;;;;26.37;41.03;98839.75;5133202;27;20055;-79
2022/05/11 10:40:50;;;;;;;6.80;2.95;;;;;;;26.17;43.48;98817.72;5133206;27;20058;-79
2022/05/11 10:43:28;;;;;;;10.52;2.55;;;;;;;26.36;43.28;98834.47;5132314;27;20410;-79
2022/05/11 10:46:05;;;;;;;2.65;2.20;;;;;;;26.45;41.56;98802.88;5131583;27;20047;-79
2022/05/11 10:48:48;;;;;;;5.05;4.05;;;;;;;26.67;42.33;98807.88;5131296;27;20088;-79
2022/05/11 10:51:22;;;;;;;3.97;2.53;;;;;;;26.54;40.13;98804.97;5132965;27;20593;-80
2022/05/11 10:53:55;;;;;;;5.28;2.60;;;;;;;27.20;39.38;98809.63;5132543;27;20047;-80
2022/05/11 10:56:36;;;;;;;6.75;2.80;;;;;;;27.83;38.75;98807.44;5131522;27;20039;-80
2022/05/11 10:59:30;;;;;;;5.63;2.97;;;;;;;28.08;37.75;98806.16;5112423;28;20088;-80
2022/05/11 11:02:11;;;;;;;3.13;2.78;;;;;;;28.35;39.30;98784.94;5112177;28;20047;-81
2022/05/11 11:05:00;;;;;;;4.25;2.83;;;;;;;28.36;37.91;98777.34;5124963;27;20043;-81
2022/05/11 11:07:29;;;;;;;;;;;;;;;28.66;37.05;98789.88;5126655;27;20485;-79
2022/05/11 11:10:28;;;;;;;4.07;2.95;;;;;;;28.58;40.54;98762.63;5132814;27;19919;-81
2022/05/11 11:13:22;;;;;;;2.67;2.40;;;;;;;28.54;39.27;98756.81;5076721;28;20043;-80
2022/05/11 11:15:53;;;;;;;3.65;2.60;;;;;;;27.86;37.66;98776.09;5111319;27;20047;-80
2022/05/11 11:18:26;;;;;;;4.00;2.60;;;;;;;27.10;38.71;98767.94;5129043;27;20050;-78
2022/05/11 11:20:58;;;;;;;8.65;2.67;;;;;;;27.08;40.13;98781.34;5131630;27;20061;-79
2022/05/11 11:23:35;;;;;;;3.38;2.38;;;;;;;26.93;39.20;98778.78;5123284;27;20104;-78
2022/05/11 11:26:05;;;;;;;5.38;2.45;;;;;;;26.95;39.00;98759.78;5122784;27;20494;-79
2022/05/11 11:28:34;;;;;;;5.88;2.58;;;;;;;27.41;38.82;98761.84;5128906;27;20050;-79
2022/05/11 11:31:20;;;;;;;3.03;2.47;;;;;;;27.80;37.62;98756.97;5123882;27;20044;-79
2022/05/11 11:34:18;;;;;;;2.53;2.30;;;;;;;27.77;38.33;98749.19;5121812;27;20167;-79
2022/05/11 11:36:45;;;;;;;4.38;2.20;;;;;;;27.68;40.21;98724.78;5123980;27;20051;-80
2022/05/11 11:39:34;;;;;;;4.50;2.35;;;;;;;27.26;38.31;98753.72;5125931;27;20063;-79
2022/05/11 11:42:06;;;;;;;4.82;2.50;;;;;;;27.87;39.85;98751.78;5129530;27;20043;-79
2022/05/11 11:44:39;;;;;;;6.05;2.83;;;;;;;28.07;37.27;98758.97;5128323;27;20043;-79
2022/05/11 11:47:34;;;;;;;9.13;2.38;;;;;;;28.22;35.68;98743.84;5124960;27;20200;-79
2022/05/11 11:50:01;;;;;;;3.72;2.05;;;;;;;28.06;35.50;98741.38;5119619;27;20393;-79
2022/05/11 11:52:36;;;;;;;4.68;2.10;;;;;;;27.95;35.84;98728.72;5124871;27;20100;-79
2022/05/11 11:55:08;;;;;;;5.50;2.53;;;;;;;28.24;34.07;98724.78;5125493;27;20047;-78
2022/05/11 11:57:36;;;;;;;3.08;2.33;;;;;;;28.77;32.28;98735.34;5129144;27;20051;-79
2022/05/11 12:00:07;;;;;;;4.07;2.10;;;;;;;28.96;32.57;98729.56;5125818;27;20047;-79
2022/05/11 12:02:40;;;;;;;2.25;1.92;;;;;;;28.94;33.16;98703.88;5130575;27;20057;-79
2022/05/11 12:05:13;;;;;;;5.07;1.95;;;;;;;29.32;33.51;98724.25;5127864;27;20096;-79
2022/05/11 12:16:06;;;;;;;5.80;2.30;;;;;;;28.89;30.40;98708.78;5127540;27;20466;-79
2022/05/11 12:18:35;;;;;;;2.92;2.30;;;;;;;28.83;31.52;98704.47;5122082;27;20501;-80
2022/05/11 12:21:04;;;;;;;4.30;2.15;;;;;;;29.23;32.61;98697.03;5130494;27;20062;-80
2022/05/11 12:23:34;;;;;;;2.72;2.05;;;;;;;29.25;31.29;98680.75;5117825;27;20040;-80
2022/05/11 12:26:04;;;;;;;3.50;2.03;;;;;;;29.51;30.84;98684.81;5128248;27;20501;-79
2022/05/11 12:28:35;;;;;;;4.90;2.15;;;;;;;29.83;31.38;98672.47;5122424;27;20393;-79
2022/05/11 12:31:02;;;;;;;3.63;1.80;;;;;;;29.68;30.38;98698.09;5130300;27;20108;-79
2022/05/11 12:33:32;;;;;;;10.13;2.10;;;;;;;29.91;29.57;98682.84;5127559;27;20047;-79
2022/05/11 12:35:59;;;;;;;3.50;1.73;;;;;;;29.78;29.24;98676.22;5132235;28;20043;-79
2022/05/11 12:38:28;;;;;;;9.43;2.30;;;;;;;30.04;28.84;98674.66;5127858;27;20043;-79
2022/05/11 12:40:55;;;;;;;6.90;2.50;;;;;;;30.28;28.63;98666.63;5123852;28;20047;-79
2022/05/11 12:43:26;;;;;;;7.25;2.08;;;;;;;30.17;27.84;98662.47;5128021;27;20046;-81
2022/05/11 12:45:57;;;;;;;5.82;2.05;;;;;;;30.31;27.50;98679.16;5131457;27;20058;-80
2022/05/11 12:48:27;;;;;;;6.50;1.98;;;;;;;30.00;28.08;98657.66;5129343;27;20043;-80
2022/05/11 12:50:57;;;;;;;3.15;1.90;;;;;;;29.30;28.26;98660.19;5130981;27;20035;-80
2022/05/11 12:53:30;;;;;;;4.32;1.90;;;;;;;29.14;30.14;98673.72;5130263;27;20496;-80
2022/05/11 12:56:12;;;;;;;3.35;1.92;;;;;;;29.91;28.54;98660.44;5133176;27;20293;-80
2022/05/11 12:58:44;;;;;;;7.60;2.03;;;;;;;30.22;27.02;98656.72;5130840;27;20043;-80
2022/05/11 13:01:13;;;;;;;3.80;1.90;;;;;;;29.83;26.76;98639.66;5135426;27;20096;-79
2022/05/11 13:03:40;;;;;;;1.63;1.52;;;;;;;29.81;27.78;98635.56;5132125;27;20414;-79
2022/05/11 13:06:23;;;;;;;4.22;1.92;;;;;;;30.07;26.58;98649.59;5132497;27;20092;-79
2022/05/11 13:08:52;;;;;;;2.58;1.70;;;;;;;30.36;27.34;98637.75;5133387;27;20065;-79
2022/05/11 13:11:21;;;;;;;2.75;1.85;;;;;;;30.75;27.92;98628.72;5121569;27;20047;-79
2022/05/11 13:13:54;;;;;;;4.25;1.90;;;;;;;30.66;27.79;98635.13;5132286;27;20050;-81
2022/05/11 13:16:28;;;;;;;3.70;2.00;;;;;;;30.66;26.77;98623.09;5121678;27;20035;-79
2022/05/11 13:19:16;;;;;;;4.38;1.80;;;;;;;30.71;26.38;98625.72;5135598;27;20047;-78
2022/05/11 13:21:47;;;;;;;11.13;3.45;;;;;;;30.33;25.89;98615.97;5131730;27;20074;-79
2022/05/11 13:24:36;;;;;;;3.88;2.20;;;;;;;29.95;25.86;98608.22;5134174;27;20047;-79
2022/05/11 13:27:35;;;;;;;4.00;1.70;;;;;;;30.01;24.92;98606.91;5130482;27;20088;-78
2022/05/11 13:30:08;;;;;;;3.38;1.80;;;;;;;30.32;25.79;98619.13;5131602;27;20058;-79
2022/05/11 13:32:39;;;;;;;3.05;2.10;;;;;;;30.39;26.46;98599.81;5121268;27;20047;-79
2022/05/11 13:35:18;;;;;;;2.80;2.00;;;;;;;30.47;28.31;98596.25;5121544;27;20050;-80
2022/05/11 13:37:55;;;;;;;5.18;2.22;;;;;;;30.79;29.07;98596.00;5128721;27;20051;-79
2022/05/11 13:40:27;;;;;;;8.63;1.88;;;;;;;30.74;27.69;98615.81;5118594;27;20469;-79
2022/05/11 13:42:53;;;;;;;2.33;2.00;;;;;;;30.97;30.94;98600.44;5133142;27;20397;-79
2022/05/11 13:45:22;;;;;;;2.85;2.10;;;;;;;31.24;28.47;98626.47;5125116;27;20043;-79
2022/05/11 13:50:39;;;;;;;3.50;1.58;;;;;;;31.17;25.53;98612.94;5130497;27;20123;-78
2022/05/11 13:53:22;;;;;;;6.63;2.03;;;;;;;31.30;24.81;98585.81;5121494;27;20062;-78
2022/05/11 13:56:06;;;;;;;4.53;2.30;;;;;;;31.19;30.28;98613.41;5123751;27;20802;-79
2022/05/11 13:58:34;;;;;;;6.65;2.10;;;;;;;31.24;29.40;98590.78;5122791;27;20047;-79
2022/05/11 14:01:07;;;;;;;5.60;2.00;;;;;;;31.46;29.74;98586.06;5133379;27;20054;-79
2022/05/11 14:03:41;;;;;;;5.55;2.50;;;;;;;31.65;29.26;98593.28;5130835;27;20074;-79
2022/05/11 14:06:11;;;;;;;6.50;2.35;;;;;;;31.54;27.93;98588.00;5133587;27;20047;-79
2022/05/11 14:08:39;;;;;;;5.95;2.53;;;;;;;31.30;29.13;98566.16;5131157;27;20051;-79
2022/05/11 14:11:06;;;;;;;2.17;1.98;;;;;;;31.33;28.63;98589.91;5130076;27;20055;-79
2022/05/11 14:13:33;;;;;;;3.72;1.85;;;;;;;31.29;28.94;98580.53;5132970;27;20316;-80
2022/05/11 14:15:59;;;;;;;3.45;2.40;;;;;;;30.96;29.15;98559.50;5133811;27;20059;-78
2022/05/11 14:18:27;;;;;;;4.78;2.30;;;;;;;30.96;28.02;98567.09;5123556;27;20051;-78
2022/05/11 14:20:55;;;;;;;5.22;2.25;;;;;;;30.59;29.60;98559.06;5133380;27;20054;-81
2022/05/11 14:23:21;;;;;;;7.00;2.38;;;;;;;30.15;29.23;98563.88;5133953;27;20051;-78
2022/05/11 14:25:48;;;;;;;5.88;2.40;;;;;;;30.66;29.73;98558.59;5135052;27;20501;-79
2022/05/11 14:28:14;;;;;;;4.13;2.22;;;;;;;30.96;29.38;98567.91;5134005;27;20043;-78
2022/05/11 14:30:42;;;;;;;4.18;2.05;;;;;;;30.63;30.15;98556.44;5132890;27;20057;-79
2022/05/11 14:33:11;;;;;;;3.38;2.40;;;;;;;30.54;29.28;98545.25;5132312;27;20089;-78
2022/05/11 14:35:38;;;;;;;6.65;1.73;;;;;;;30.50;29.88;98564.72;5133219;27;20047;-79
2022/05/11 14:38:06;;;;;;;3.97;2.00;;;;;;;30.35;30.80;98552.00;5129846;27;20043;-78
2022/05/11 14:40:33;;;;;;;3.20;2.00;;;;;;;29.99;30.34;98541.13;5132881;27;20054;-79
2022/05/11 14:42:59;;;;;;;5.50;2.50;;;;;;;30.25;30.30;98563.56;5132107;27;20050;-79
2022/05/11 14:45:26;;;;;;;6.32;2.35;;;;;;;30.16;30.55;98535.53;5133191;27;20051;-79
2022/05/11 14:47:57;;;;;;;4.78;2.60;;;;;;;29.85;31.06;98532.06;5132913;27;20081;-79
2022/05/11 14:50:24;;;;;;;5.22;2.17;;;;;;;29.88;32.16;98549.03;5133164;27;20134;-79
2022/05/11 14:52:55;;;;;;;4.38;2.10;;;;;;;29.36;31.35;98530.13;5127941;27;20054;-78
2022/05/11 14:55:23;;;;;;;4.65;2.22;;;;;;;29.57;31.62;98563.09;5132743;27;20119;-79
2022/05/11 15:03:21;;;;;;;5.38;2.80;;;;;;;30.69;29.78;98543.91;5132287;27;20053;-78
2022/05/11 15:05:48;;;;;;;6.82;2.58;;;;;;;30.71;31.24;98559.25;5132097;27;20043;-79
2022/05/11 15:08:15;;;;;;;8.23;2.60;;;;;;;30.80;32.74;98539.56;5118055;27;20157;-79
2022/05/11 15:10:44;;;;;;;6.25;2.13;;;;;;;30.85;30.62;98544.19;5108332;27;20439;-78
2022/05/11 15:15:55;;;;;;;4.90;2.42;;;;;;;30.29;31.69;98544.94;5104080;27;20058;-78
2022/05/11 15:18:24;;;;;;;4.07;2.30;;;;;;;30.14;30.63;98548.22;5098221;27;20066;-78
2022/05/11 15:20:51;;;;;;;4.50;2.08;;;;;;;30.06;31.82;98533.03;5105784;27;20426;-78
2022/05/11 15:23:18;;;;;;;5.78;2.72;;;;;;;30.38;32.11;98518.84;5094614;27;20135;-78
2022/05/11 15:25:47;;;;;;;4.13;2.60;;;;;;;30.45;32.80;98530.41;5135187;27;20046;-78
2022/05/11 15:28:14;;;;;;;4.55;2.55;;;;;;;30.44;32.22;98532.41;5120598;27;20084;-78
2022/05/11 15:30:43;;;;;;;7.22;2.28;;;;;;;30.53;31.18;98519.19;5130272;27;20046;-78
2022/05/11 15:33:12;;;;;;;3.58;2.45;;;;;;;30.97;32.41;98549.06;5115137;27;20044;-78
2022/05/11 15:35:39;;;;;;;4.82;2.17;;;;;;;30.85;31.05;98547.00;5097454;28;20483;-78
2022/05/11 15:38:05;;;;;;;8.02;2.40;;;;;;;30.15;31.23;98527.44;5102063;27;20047;-78
2022/05/11 15:40:32;;;;;;;11.55;2.30;;;;;;;29.78;31.94;98541.75;5103960;28;20059;-77
2022/05/11 15:43:00;;;;;;;5.15;2.30;;;;;;;29.70;32.31;98539.75;5101146;28;20057;-78
2022/05/11 15:45:29;;;;;;;4.95;2.33;;;;;;;29.46;32.85;98534.59;5118420;27;20066;-78
2022/05/11 15:47:55;;;;;;;5.47;2.50;;;;;;;29.68;32.83;98533.66;5127912;27;20055;-79
2022/05/11 15:50:23;;;;;;;3.70;2.15;;;;;;;30.10;32.22;98538.84;5112547;27;20058;-78
2022/05/11 15:52:51;;;;;;;6.18;2.30;;;;;;;30.29;32.20;98552.50;5101381;28;20056;-78
2022/05/11 15:55:20;;;;;;;4.47;2.20;;;;;;;30.35;32.07;98538.00;5097551;28;20055;-77
2022/05/11 15:57:47;;;;;;;6.60;2.35;;;;;;;30.69;30.67;98549.50;5127306;27;20051;-76
2022/05/11 16:00:19;;;;;;;5.50;1.98;;;;;;;30.52;30.81;98520.34;5105751;27;20055;-78
2022/05/11 16:02:46;;;;;;;2.80;2.20;;;;;;;30.64;30.69;98513.22;5097760;28;20059;-78
2022/05/11 16:05:14;;;;;;;4.20;2.00;;;;;;;30.81;30.38;98540.41;5098448;28;20051;-78
2022/05/11 16:07:41;;;;;;;5.25;2.65;;;;;;;30.38;28.85;98511.25;5112466;27;20051;-78
2022/05/11 16:10:09;;;;;;;2.58;1.88;;;;;;;30.52;29.58;98530.75;5101929;27;20735;-78
2022/05/11 16:12:36;;;;;;;4.85;2.00;;;;;;;30.63;30.22;98503.16;5107727;27;20051;-77
2022/05/11 16:15:03;;;;;;;4.07;1.60;;;;;;;30.42;29.19;98517.06;5102215;27;20062;-78
2022/05/11 16:20:15;;;;;;;7.45;2.83;;;;;;;30.65;31.33;98512.91;5108803;27;20096;-79
2022/05/11 16:22:41;;;;;;;3.55;1.70;;;;;;;30.55;29.20;98504.84;5097109;28;21584;-79
2022/05/11 16:25:08;;;;;;;6.18;1.90;;;;;;;30.20;28.96;98518.88;5107748;27;20058;-79
2022/05/11 16:27:35;;;;;;;6.00;1.73;;;;;;;30.50;30.23;98533.03;5105314;27;20043;-79
2022/05/11 16:30:02;;;;;;;2.05;1.70;;;;;;;30.23;29.31;98520.19;5107958;27;20059;-79
2022/05/11 16:32:30;;;;;;;4.38;1.70;;;;;;;30.14;28.55;98520.19;5104277;27;20051;-80
2022/05/11 16:34:57;;;;;;;4.22;1.92;;;;;;;30.00;29.51;98525.97;5111080;27;20050;-80
2022/05/11 16:37:24;;;;;;;8.48;1.88;;;;;;;29.89;27.95;98528.28;5104929;27;20039;-79
2022/05/11 16:39:51;;;;;;;3.40;1.70;;;;;;;29.48;28.20;98505.13;5102000;27;20056;-80
2022/05/11 16:42:22;;;;;;;3.63;2.05;;;;;;;29.44;29.29;98526.53;5104621;27;20066;-80
2022/05/11 16:44:49;;;;;;;3.47;2.20;;;;;;;29.45;29.62;98522.56;5105128;27;20055;-78
2022/05/11 16:47:16;;;;;;;4.50;1.77;;;;;;;29.24;29.74;98510.34;5109852;27;20043;-79
2022/05/11 16:49:49;;;;;;;3.65;1.90;;;;;;;29.22;30.03;98521.88;5107750;28;20048;-79
2022/05/11 16:52:18;;;;;;;6.88;1.98;;;;;;;29.35;30.28;98524.88;5099125;27;20530;-80
2022/05/11 16:54:45;;;;;;;2.80;1.73;;;;;;;29.25;30.68;98528.78;5105311;27;20186;-80
2022/05/11 16:57:12;;;;;;;11.95;2.00;;;;;;;29.09;31.38;98523.59;5109803;27;20371;-79
2022/05/11 16:59:38;;;;;;;4.18;1.92;;;;;;;28.78;31.31;98520.81;5108457;27;20060;-79
2022/05/11 17:02:06;;;;;;;3.17;1.95;;;;;;;28.80;31.37;98521.34;5097931;27;20061;-79
2022/05/11 17:04:34;;;;;;;2.78;1.50;;;;;;;28.60;31.55;98525.50;5102714;27;20062;-79
2022/05/11 17:07:01;;;;;;;4.28;1.77;;;;;;;28.57;30.81;98531.69;5103496;27;20040;-79
2022/05/11 17:09:28;;;;;;;4.07;1.58;;;;;;;28.27;31.09;98511.75;5109542;27;20454;-79
2022/05/11 17:11:55;;;;;;;12.45;2.17;;;;;;;28.30;30.12;98522.31;5115888;27;20078;-79
2022/05/11 17:14:25;;;;;;;8.85;1.73;;;;;;;28.28;30.75;98546.97;5107146;27;20051;-79
2022/05/11 17:16:51;;;;;;;3.80;1.85;;;;;;;28.18;29.74;98533.22;5105943;27;20052;-79
2022/05/11 17:19:19;;;;;;;3.40;1.65;;;;;;;27.84;29.65;98510.25;5107809;27;20047;-80
2022/05/11 17:21:47;;;;;;;2.47;1.38;;;;;;;27.96;29.56;98534.88;5108511;27;20079;-80
2022/05/11 17:24:15;;;;;;;5.88;1.77;;;;;;;27.55;29.54;98517.06;5110925;27;20051;-80
2022/05/11 17:26:42;;;;;;;6.25;2.10;;;;;;;27.64;30.19;98539.47;5100425;27;20056;-79
2022/05/11 17:29:08;;;;;;;5.00;2.30;;;;;;;27.58;30.99;98532.38;5105061;27;20052;-79
2022/05/11 17:31:38;;;;;;;6.78;1.63;;;;;;;27.33;30.02;98533.72;5108233;27;20055;-79
2022/05/11 17:34:05;;;;;;;5.50;1.80;;;;;;;27.43;30.75;98539.09;5106691;27;20051;-79
2022/05/11 17:36:31;;;;;;;4.47;1.48;;;;;;;27.35;30.90;98531.44;5105215;27;20046;-79
2022/05/11 17:39:01;;;;;;;3.33;1.55;;;;;;;27.18;30.43;98537.63;5113084;27;20054;-79
2022/05/11 17:41:29;;;;;;;3.00;1.80;;;;;;;27.26;31.30;98539.69;5113733;27;20058;-79
2022/05/11 17:43:56;;;;;;;3.42;1.50;;;;;;;27.16;30.42;98542.72;5133550;27;20039;-78
2022/05/11 17:46:23;;;;;;;6.70;1.95;;;;;;;26.84;31.69;98516.53;5121365;27;20482;-79
2022/05/11 17:48:49;;;;;;;6.25;1.30;;;;;;;26.78;30.54;98538.13;5121331;27;20055;-79
2022/05/11 17:51:16;;;;;;;3.17;1.70;;;;;;;26.48;31.04;98523.56;5130374;27;20478;-79
2022/05/11 17:53:43;;;;;;;3.30;1.80;;;;;;;26.44;30.93;98528.09;5130028;27;20049;-79
2022/05/11 17:56:13;;;;;;;3.40;2.15;;;;;;;26.46;31.18;98538.94;5127262;27;20554;-78
2022/05/11 17:58:41;;;;;;;;;;;;;;;26.50;31.68;98557.53;5109231;27;20409;-79
2022/05/11 18:01:08;;;;;;;4.88;1.38;;;;;;;26.25;31.64;98546.81;5127757;27;19920;-79
2022/05/11 18:03:34;;;;;;;2.38;1.35;;;;;;;26.06;31.04;98547.66;5129983;27;20039;-80
2022/05/11 18:06:02;;;;;;;3.28;1.48;;;;;;;26.00;30.16;98554.44;5123639;27;20383;-79
2022/05/11 18:08:29;;;;;;;2.95;1.23;;;;;;;25.89;31.01;98562.06;5130122;27;20047;-79
2022/05/11 18:10:56;;;;;;;2.72;1.52;;;;;;;25.83;31.24;98552.16;5127117;27;20050;-78
2022/05/11 18:13:22;;;;;;;2.80;1.42;;;;;;;25.86;31.06;98559.06;5124978;27;20054;-79
2022/05/11 18:15:51;;;;;;;2.45;1.60;;;;;;;25.73;31.52;98566.19;5113593;27;20044;-78
2022/05/11 18:18:18;;;;;;;9.82;1.80;;;;;;;25.43;31.30;98538.50;5118854;27;20535;-79
2022/05/11 18:20:50;;;;;;;3.65;1.35;;;;;;;25.39;31.97;98561.66;5133468;27;20057;-79
2022/05/11 18:23:19;;;;;;;4.97;1.50;;;;;;;25.26;32.58;98540.91;5131957;27;20474;-79
2022/05/11 18:25:46;;;;;;;2.13;1.63;;;;;;;25.14;32.24;98546.06;5114192;27;20054;-79
2022/05/11 18:28:16;;;;;;;4.00;1.67;;;;;;;25.05;32.85;98551.44;5113757;27;20050;-78
2022/05/11 18:30:43;;;;;;;2.22;1.50;;;;;;;25.02;32.49;98563.16;5129650;27;20431;-79
2022/05/11 18:33:11;;;;;;;4.28;1.63;;;;;;;24.90;33.47;98566.34;5130505;27;20047;-78
2022/05/11 18:35:38;;;;;;;4.80;1.52;;;;;;;24.51;33.15;98561.69;5129755;27;20047;-79
2022/05/11 18:38:05;;;;;;;3.90;1.48;;;;;;;24.46;35.11;98553.41;5129036;27;20047;-79
2022/05/11 18:40:32;;;;;;;4.93;1.60;;;;;;;24.47;34.34;98568.97;5123463;27;20035;-79
2022/05/11 18:42:59;;;;;;;2.67;1.10;;;;;;;24.40;35.05;98580.38;5125295;27;20514;-79
2022/05/11 18:45:25;;;;;;;5.68;1.60;;;;;;;24.30;35.73;98595.19;5117688;27;20040;-79
2022/05/11 18:47:52;;;;;;;4.22;1.42;;;;;;;24.02;38.35;98577.34;5123074;27;20421;-78
2022/05/11 18:50:22;;;;;;;5.80;1.52;;;;;;;23.84;40.88;98581.59;5125800;27;20558;-79
2022/05/11 18:52:50;;;;;;;3.72;1.40;;;;;;;23.69;41.94;98602.75;5124479;27;20503;-79
2022/05/11 18:55:17;;;;;;;3.25;1.88;;;;;;;23.34;42.86;98592.66;5130791;27;20297;-79
2022/05/11 18:57:44;;;;;;;8.73;2.55;;;;;;;23.07;43.29;98598.53;5128493;27;20061;-78
2022/05/11 19:00:13;;;;;;;6.55;2.90;;;;;;;22.90;43.16;98605.19;5127237;27;20492;-79
2022/05/11 19:02:40;;;;;;;8.05;2.45;;;;;;;22.59;44.09;98616.31;5127354;27;20135;-79
2022/05/11 19:05:09;;;;;;;5.22;2.30;;;;;;;22.38;44.69;98620.19;5125582;27;20130;-78
2022/05/11 19:07:37;;;;;;;3.42;2.15;;;;;;;22.25;45.16;98615.97;5124266;27;20066;-78
2022/05/11 19:10:04;;;;;;;5.82;2.13;;;;;;;21.79;46.55;98607.59;5122558;27;20050;-79
2022/05/11 19:12:30;;;;;;;5.18;2.08;;;;;;;21.74;48.05;98606.47;5128896;27;20047;-79
2022/05/11 19:14:57;;;;;;;7.80;2.58;;;;;;;21.68;49.15;98626.91;5122170;27;20047;-79
2022/05/11 19:17:23;;;;;;;3.65;1.92;;;;;;;21.39;48.64;98610.75;5128195;27;20043;-78
2022/05/11 19:19:50;;;;;;;4.60;2.17;;;;;;;21.33;47.47;98616.50;5120074;27;20054;-78
2022/05/11 19:22:17;;;;;;;5.65;2.00;;;;;;;21.35;47.03;98617.06;5126179;27;20040;-79
2022/05/11 19:24:44;;;;;;;2.75;1.92;;;;;;;21.60;48.27;98651.50;5119499;27;20048;-79
2022/05/11 19:27:11;;;;;;;3.90;2.00;;;;;;;21.22;50.72;98621.97;5109820;27;20048;-79
2022/05/11 19:29:38;;;;;;;4.03;2.10;;;;;;;21.05;50.50;98629.63;5118175;27;20045;-77
2022/05/11 19:32:05;;;;;;;3.58;2.67;;;;;;;20.90;49.53;98644.16;5123908;27;20054;-78
2022/05/11 19:34:32;;;;;;;5.13;3.00;;;;;;;20.85;49.88;98642.19;5124703;27;20078;-79
2022/05/11 19:37:00;;;;;;;5.95;2.88;;;;;;;20.48;50.64;98631.91;5128496;27;20057;-78
2022/05/11 19:39:27;;;;;;;5.30;3.22;;;;;;;20.48;50.76;98642.97;5127024;27;20050;-79
2022/05/11 19:41:55;;;;;;;5.63;2.85;;;;;;;20.19;52.33;98641.56;5120958;27;20059;-78
2022/05/11 19:44:22;;;;;;;4.25;2.70;;;;;;;20.33;50.07;98687.81;5126553;27;20057;-78
2022/05/11 19:46:49;;;;;;;7.53;3.30;;;;;;;20.19;53.79;98664.50;5129827;27;20502;-79
2022/05/11 19:49:16;;;;;;;8.77;3.70;;;;;;;20.12;52.71;98677.66;5126450;27;20745;-78
2022/05/11 19:51:42;;;;;;;13.70;6.93;;;;;;;19.96;51.29;98674.75;5131616;27;20042;-78
2022/05/11 19:54:11;;;;;;;8.70;5.43;;;;;;;19.86;52.56;98676.53;5121436;27;20051;-78
2022/05/11 19:56:38;;;;;;;13.38;5.35;;;;;;;19.68;53.45;98656.44;5130000;27;20039;-78
2022/05/11 19:59:07;;;;;;;9.27;4.15;;;;;;;19.70;51.15;98675.50;5120931;27;20078;-79
2022/05/11 20:01:34;;;;;;;8.75;3.88;;;;;;;19.69;51.59;98671.91;5120618;27;20054;-78
2022/05/11 20:04:01;;;;;;;5.72;4.13;;;;;;;19.42;53.77;98661.63;5122233;27;20413;-78
2022/05/11 20:06:28;;;;;;;4.57;3.30;;;;;;;19.31;53.77;98653.47;5119191;27;20525;-79
2022/05/11 20:08:55;;;;;;;7.38;3.00;;;;;;;19.38;51.67;98681.69;5122507;28;20050;-79
2022/05/11 20:11:24;;;;;;;4.88;3.00;;;;;;;19.32;53.50;98677.19;5124537;27;20083;-79
2022/05/11 20:13:51;;;;;;;4.10;2.92;;;;;;;19.04;54.16;98657.78;5116046;27;20411;-78
2022/05/11 20:16:19;;;;;;;4.88;2.70;;;;;;;19.27;52.30;98697.25;5129782;27;20050;-79
2022/05/11 20:18:48;;;;;;;5.80;3.28;;;;;;;19.16;54.24;98674.19;5122537;27;20129;-78
2022/05/11 20:21:15;;;;;;;6.38;2.20;;;;;;;19.16;54.89;98698.19;5134304;27;20039;-78
2022/05/11 20:23:43;;;;;;;4.20;2.30;;;;;;;19.02;53.79;98693.00;5123842;27;20077;-78
2022/05/11 20:26:13;;;;;;;7.97;2.58;;;;;;;19.02;54.49;98690.25;5130062;27;20136;-78